sensor_id;sensor_type;location;lat;lon;timestamp;temperature;humidity
7970;DHT22;4030;52.362;9.206;2023-02-13T00:02:17;8.90;94.70
7970;DHT22;4030;52.362;9.206;2023-02-13T00:04:43;8.90;94.70
7970;DHT22;4030;52.362;9.206;2023-02-13T00:07:10;11.40;94.70
7970;DHT22;4030;52.362;9.206;2023-02-13T00:09:36;8.80;94.80
7970;DHT22;4030;52.362;9.206;2023-02-13T00:12:03;9.10;94.90
7970;DHT22;4030;52.362;9.206;2023-02-13T00:19:21;9.10;94.90
7970;DHT22;4030;52.362;9.206;2023-02-13T00:21:47;8.90;94.80
7970;DHT22;4030;52.362;9.206;2023-02-13T00:26:39;8.80;94.50
7970;DHT22;4030;52.362;9.206;2023-02-13T00:29:05;9.40;94.70
7970;DHT22;4030;52.362;9.206;2023-02-13T00:36:23;9.10;94.10
7970;DHT22;4030;52.362;9.206;2023-02-13T00:41:16;9.20;94.30
7970;DHT22;4030;52.362;9.206;2023-02-13T00:43:43;8.70;94.20
7970;DHT22;4030;52.362;9.206;2023-02-13T00:46:09;9.40;95.10
7970;DHT22;4030;52.362;9.206;2023-02-13T00:48:35;8.90;94.80
7970;DHT22;4030;52.362;9.206;2023-02-13T00:51:02;9.40;95.10
7970;DHT22;4030;52.362;9.206;2023-02-13T00:55:54;9.10;94.50
7970;DHT22;4030;52.362;9.206;2023-02-13T01:03:13;9.00;94.10
7970;DHT22;4030;52.362;9.206;2023-02-13T01:05:40;9.20;95.00
7970;DHT22;4030;52.362;9.206;2023-02-13T01:08:06;9.20;95.00
7970;DHT22;4030;52.362;9.206;2023-02-13T01:10:31;9.10;95.00
7970;DHT22;4030;52.362;9.206;2023-02-13T01:12:57;9.10;95.00
7970;DHT22;4030;52.362;9.206;2023-02-13T01:15:23;8.90;94.90
7970;DHT22;4030;52.362;9.206;2023-02-13T01:17:49;8.80;94.80
7970;DHT22;4030;52.362;9.206;2023-02-13T01:20:17;8.70;94.80
7970;DHT22;4030;52.362;9.206;2023-02-13T01:22:43;9.30;95.00
7970;DHT22;4030;52.362;9.206;2023-02-13T01:25:10;8.70;94.80
7970;DHT22;4030;52.362;9.206;2023-02-13T01:30:04;8.80;94.90
7970;DHT22;4030;52.362;9.206;2023-02-13T01:32:36;9.40;95.10
7970;DHT22;4030;52.362;9.206;2023-02-13T01:35:02;8.80;94.90
7970;DHT22;4030;52.362;9.206;2023-02-13T01:37:28;9.20;95.10
7970;DHT22;4030;52.362;9.206;2023-02-13T01:39:54;9.00;95.00
7970;DHT22;4030;52.362;9.206;2023-02-13T01:42:25;9.00;94.20
7970;DHT22;4030;52.362;9.206;2023-02-13T01:45:03;9.00;95.00
7970;DHT22;4030;52.362;9.206;2023-02-13T01:47:36;8.60;94.30
7970;DHT22;4030;52.362;9.206;2023-02-13T01:53:26;9.00;95.00
7970;DHT22;4030;52.362;9.206;2023-02-13T01:55:54;9.40;94.40
7970;DHT22;4030;52.362;9.206;2023-02-13T01:58:24;9.00;94.20
7970;DHT22;4030;52.362;9.206;2023-02-13T02:03:29;9.20;94.30
7970;DHT22;4030;52.362;9.206;2023-02-13T02:05:59;8.70;94.90
7970;DHT22;4030;52.362;9.206;2023-02-13T02:08:26;8.80;94.40
7970;DHT22;4030;52.362;9.206;2023-02-13T02:10:54;9.20;95.00
7970;DHT22;4030;52.362;9.206;2023-02-13T02:13:21;8.80;94.90
7970;DHT22;4030;52.362;9.206;2023-02-13T02:15:48;9.00;95.00
7970;DHT22;4030;52.362;9.206;2023-02-13T02:18:22;9.20;94.30
7970;DHT22;4030;52.362;9.206;2023-02-13T02:23:38;8.80;94.90
7970;DHT22;4030;52.362;9.206;2023-02-13T02:32:17;9.10;95.10
7970;DHT22;4030;52.362;9.206;2023-02-13T02:38:22;8.50;94.30
7970;DHT22;4030;52.362;9.206;2023-02-13T02:45:08;8.80;95.00
7970;DHT22;4030;52.362;9.206;2023-02-13T02:47:30;8.90;94.20
7970;DHT22;4030;52.362;9.206;2023-02-13T02:50:37;8.70;95.00
7970;DHT22;4030;52.362;9.206;2023-02-13T02:53:25;9.20;95.10
7970;DHT22;4030;52.362;9.206;2023-02-13T02:56:21;9.00;95.20
7970;DHT22;4030;52.362;9.206;2023-02-13T02:58:58;8.70;94.90
7970;DHT22;4030;52.362;9.206;2023-02-13T03:01:47;9.00;95.10
7970;DHT22;4030;52.362;9.206;2023-02-13T03:04:39;8.80;94.20
7970;DHT22;4030;52.362;9.206;2023-02-13T03:07:26;9.00;95.10
7970;DHT22;4030;52.362;9.206;2023-02-13T03:09:56;8.70;94.90
7970;DHT22;4030;52.362;9.206;2023-02-13T03:12:47;8.80;94.20
7970;DHT22;4030;52.362;9.206;2023-02-13T03:15:37;8.60;94.70
7970;DHT22;4030;52.362;9.206;2023-02-13T03:18:25;8.60;94.90
7970;DHT22;4030;52.362;9.206;2023-02-13T03:21:15;8.80;94.20
7970;DHT22;4030;52.362;9.206;2023-02-13T03:24:13;8.80;94.20
7970;DHT22;4030;52.362;9.206;2023-02-13T03:26:51;9.10;94.80
7970;DHT22;4030;52.362;9.206;2023-02-13T03:38:17;8.80;94.20
7970;DHT22;4030;52.362;9.206;2023-02-13T03:41:04;9.10;95.10
7970;DHT22;4030;52.362;9.206;2023-02-13T03:43:53;8.70;95.00
7970;DHT22;4030;52.362;9.206;2023-02-13T03:46:24;8.80;94.30
7970;DHT22;4030;52.362;9.206;2023-02-13T03:48:51;8.50;94.90
7970;DHT22;4030;52.362;9.206;2023-02-13T03:54:25;8.80;94.30
7970;DHT22;4030;52.362;9.206;2023-02-13T03:57:17;8.50;94.80
7970;DHT22;4030;52.362;9.206;2023-02-13T04:00:06;9.20;94.50
7970;DHT22;4030;52.362;9.206;2023-02-13T04:02:43;9.10;95.10
7970;DHT22;4030;52.362;9.206;2023-02-13T04:05:17;8.90;95.10
7970;DHT22;4030;52.362;9.206;2023-02-13T04:07:45;9.00;95.10
7970;DHT22;4030;52.362;9.206;2023-02-13T04:10:14;8.50;94.50
7970;DHT22;4030;52.362;9.206;2023-02-13T04:13:00;9.00;95.10
7970;DHT22;4030;52.362;9.206;2023-02-13T04:15:40;9.10;95.10
7970;DHT22;4030;52.362;9.206;2023-02-13T04:18:20;8.70;94.20
7970;DHT22;4030;52.362;9.206;2023-02-13T04:23:14;8.80;94.40
7970;DHT22;4030;52.362;9.206;2023-02-13T04:25:43;8.50;94.80
7970;DHT22;4030;52.362;9.206;2023-02-13T04:30:38;8.80;94.30
7970;DHT22;4030;52.362;9.206;2023-02-13T04:33:04;8.60;94.50
7970;DHT22;4030;52.362;9.206;2023-02-13T04:42:48;8.80;94.30
7970;DHT22;4030;52.362;9.206;2023-02-13T04:45:14;8.60;94.30
7970;DHT22;4030;52.362;9.206;2023-02-13T04:50:06;8.90;94.40
7970;DHT22;4030;52.362;9.206;2023-02-13T04:52:33;8.80;95.10
7970;DHT22;4030;52.362;9.206;2023-02-13T04:54:58;8.50;94.50
7970;DHT22;4030;52.362;9.206;2023-02-13T05:24:29;8.70;94.50
7970;DHT22;4030;52.362;9.206;2023-02-13T05:31:49;8.70;94.30
7970;DHT22;4030;52.362;9.206;2023-02-13T05:34:16;9.10;95.20
7970;DHT22;4030;52.362;9.206;2023-02-13T05:36:42;8.80;95.00
7970;DHT22;4030;52.362;9.206;2023-02-13T05:39:08;9.10;95.20
7970;DHT22;4030;52.362;9.206;2023-02-13T05:41:34;8.60;94.80
7970;DHT22;4030;52.362;9.206;2023-02-13T05:51:18;8.70;94.20
7970;DHT22;4030;52.362;9.206;2023-02-13T05:53:44;8.70;95.00
7970;DHT22;4030;52.362;9.206;2023-02-13T05:56:10;8.50;94.80
7970;DHT22;4030;52.362;9.206;2023-02-13T05:58:36;8.70;94.20
7970;DHT22;4030;52.362;9.206;2023-02-13T06:01:02;8.70;94.20
7970;DHT22;4030;52.362;9.206;2023-02-13T06:03:29;8.90;94.60
7970;DHT22;4030;52.362;9.206;2023-02-13T06:05:55;8.90;95.00
7970;DHT22;4030;52.362;9.206;2023-02-13T06:08:22;8.70;94.20
7970;DHT22;4030;52.362;9.206;2023-02-13T06:10:48;8.50;94.80
7970;DHT22;4030;52.362;9.206;2023-02-13T06:13:15;8.70;94.70
7970;DHT22;4030;52.362;9.206;2023-02-13T06:15:41;9.00;95.10
7970;DHT22;4030;52.362;9.206;2023-02-13T06:18:08;9.00;95.10
7970;DHT22;4030;52.362;9.206;2023-02-13T06:20:34;8.70;95.00
7970;DHT22;4030;52.362;9.206;2023-02-13T06:23:00;8.60;95.00
7970;DHT22;4030;52.362;9.206;2023-02-13T06:25:25;9.00;95.10
7970;DHT22;4030;52.362;9.206;2023-02-13T06:27:52;8.70;94.20
7970;DHT22;4030;52.362;9.206;2023-02-13T06:30:18;8.40;94.80
7970;DHT22;4030;52.362;9.206;2023-02-13T06:32:47;8.70;95.00
7970;DHT22;4030;52.362;9.206;2023-02-13T06:35:14;8.60;94.70
7970;DHT22;4030;52.362;9.206;2023-02-13T06:37:41;9.00;95.10
7970;DHT22;4030;52.362;9.206;2023-02-13T06:40:11;8.60;94.90
7970;DHT22;4030;52.362;9.206;2023-02-13T06:47:30;9.00;95.00
7970;DHT22;4030;52.362;9.206;2023-02-13T06:49:55;8.90;94.60
7970;DHT22;4030;52.362;9.206;2023-02-13T07:02:05;8.70;94.30
7970;DHT22;4030;52.362;9.206;2023-02-13T07:06:58;8.40;94.10
7970;DHT22;4030;52.362;9.206;2023-02-13T07:09:24;8.70;94.80
7970;DHT22;4030;52.362;9.206;2023-02-13T07:26:28;8.90;94.30
7970;DHT22;4030;52.362;9.206;2023-02-13T07:33:49;8.80;94.10
7970;DHT22;4030;52.362;9.206;2023-02-13T07:36:15;8.50;94.10
7970;DHT22;4030;52.362;9.206;2023-02-13T07:41:07;8.60;94.00
7970;DHT22;4030;52.362;9.206;2023-02-13T07:43:33;9.20;94.70
7970;DHT22;4030;52.362;9.206;2023-02-13T07:46:02;7.60;93.50
7970;DHT22;4030;52.362;9.206;2023-02-13T07:48:28;8.50;94.50
7970;DHT22;4030;52.362;9.206;2023-02-13T07:50:59;9.20;94.80
7970;DHT22;4030;52.362;9.206;2023-02-13T07:53:26;8.80;94.60
7970;DHT22;4030;52.362;9.206;2023-02-13T07:55:52;8.70;94.60
7970;DHT22;4030;52.362;9.206;2023-02-13T08:00:43;9.00;94.50
7970;DHT22;4030;52.362;9.206;2023-02-13T08:03:09;9.30;94.10
7970;DHT22;4030;52.362;9.206;2023-02-13T08:08:02;9.00;94.10
7970;DHT22;4030;52.362;9.206;2023-02-13T08:10:27;9.10;93.90
7970;DHT22;4030;52.362;9.206;2023-02-13T08:13:12;9.40;93.90
7970;DHT22;4030;52.362;9.206;2023-02-13T08:15:39;9.20;94.60
7970;DHT22;4030;52.362;9.206;2023-02-13T08:18:05;9.00;94.40
7970;DHT22;4030;52.362;9.206;2023-02-13T08:20:31;8.80;94.30
7970;DHT22;4030;52.362;9.206;2023-02-13T08:23:08;8.90;94.20
7970;DHT22;4030;52.362;9.206;2023-02-13T08:25:36;9.50;94.40
7970;DHT22;4030;52.362;9.206;2023-02-13T08:28:03;9.30;94.40
7970;DHT22;4030;52.362;9.206;2023-02-13T08:30:29;9.40;94.30
7970;DHT22;4030;52.362;9.206;2023-02-13T08:32:54;8.90;94.00
7970;DHT22;4030;52.362;9.206;2023-02-13T08:35:21;9.00;93.50
7970;DHT22;4030;52.362;9.206;2023-02-13T08:37:51;9.30;94.10
7970;DHT22;4030;52.362;9.206;2023-02-13T08:42:43;9.20;94.10
7970;DHT22;4030;52.362;9.206;2023-02-13T08:45:09;9.70;94.20
7970;DHT22;4030;52.362;9.206;2023-02-13T08:47:36;9.60;94.10
7970;DHT22;4030;52.362;9.206;2023-02-13T08:50:03;9.50;93.50
7970;DHT22;4030;52.362;9.206;2023-02-13T08:52:28;9.50;93.60
7970;DHT22;4030;52.362;9.206;2023-02-13T09:04:39;9.90;93.60
7970;DHT22;4030;52.362;9.206;2023-02-13T09:14:23;9.80;93.40
7970;DHT22;4030;52.362;9.206;2023-02-13T09:19:15;9.90;93.60
7970;DHT22;4030;52.362;9.206;2023-02-13T09:24:08;9.90;93.50
7970;DHT22;4030;52.362;9.206;2023-02-13T09:26:35;10.00;93.50
7970;DHT22;4030;52.362;9.206;2023-02-13T09:29:01;10.30;93.70
7970;DHT22;4030;52.362;9.206;2023-02-13T09:31:26;9.80;94.00
7970;DHT22;4030;52.362;9.206;2023-02-13T09:33:53;9.70;93.90
7970;DHT22;4030;52.362;9.206;2023-02-13T09:36:20;10.10;93.50
7970;DHT22;4030;52.362;9.206;2023-02-13T09:38:51;10.00;93.10
7970;DHT22;4030;52.362;9.206;2023-02-13T09:41:22;8.70;92.80
7970;DHT22;4030;52.362;9.206;2023-02-13T09:43:58;10.30;93.40
7970;DHT22;4030;52.362;9.206;2023-02-13T09:46:38;10.40;93.40
7970;DHT22;4030;52.362;9.206;2023-02-13T09:49:08;10.30;92.80
7970;DHT22;4030;52.362;9.206;2023-02-13T09:51:37;10.00;93.00
7970;DHT22;4030;52.362;9.206;2023-02-13T09:54:05;10.70;93.20
7970;DHT22;4030;52.362;9.206;2023-02-13T10:05:32;10.60;92.70
7970;DHT22;4030;52.362;9.206;2023-02-13T10:08:11;10.50;92.70
7970;DHT22;4030;52.362;9.206;2023-02-13T10:13:58;10.90;92.70
7970;DHT22;4030;52.362;9.206;2023-02-13T10:16:28;10.40;92.30
7970;DHT22;4030;52.362;9.206;2023-02-13T10:19:03;10.50;92.10
7970;DHT22;4030;52.362;9.206;2023-02-13T10:21:41;10.70;92.60
7970;DHT22;4030;52.362;9.206;2023-02-13T10:25:00;10.80;92.10
7970;DHT22;4030;52.362;9.206;2023-02-13T10:27:40;11.20;92.40
7970;DHT22;4030;52.362;9.206;2023-02-13T10:30:29;11.00;92.10
7970;DHT22;4030;52.362;9.206;2023-02-13T10:33:27;10.50;92.20
7970;DHT22;4030;52.362;9.206;2023-02-13T10:38:32;10.90;92.00
7970;DHT22;4030;52.362;9.206;2023-02-13T10:41:18;11.30;92.50
7970;DHT22;4030;52.362;9.206;2023-02-13T11:00:53;11.50;91.80
7970;DHT22;4030;52.362;9.206;2023-02-13T11:03:22;11.40;92.00
7970;DHT22;4030;52.362;9.206;2023-02-13T11:05:53;11.60;91.70
7970;DHT22;4030;52.362;9.206;2023-02-13T11:10:51;11.30;91.70
7970;DHT22;4030;52.362;9.206;2023-02-13T11:13:19;11.70;91.80
7970;DHT22;4030;52.362;9.206;2023-02-13T11:18:40;12.10;92.00
7970;DHT22;4030;52.362;9.206;2023-02-13T11:21:20;11.80;91.50
7970;DHT22;4030;52.362;9.206;2023-02-13T11:23:52;11.90;91.80
7970;DHT22;4030;52.362;9.206;2023-02-13T11:26:30;11.90;91.60
7970;DHT22;4030;52.362;9.206;2023-02-13T11:29:03;12.00;91.80
7970;DHT22;4030;52.362;9.206;2023-02-13T11:31:35;12.20;91.50
7970;DHT22;4030;52.362;9.206;2023-02-13T11:36:51;11.60;91.40
7970;DHT22;4030;52.362;9.206;2023-02-13T11:39:20;12.10;91.60
7970;DHT22;4030;52.362;9.206;2023-02-13T11:41:47;12.10;91.30
7970;DHT22;4030;52.362;9.206;2023-02-13T11:44:22;12.00;91.50
7970;DHT22;4030;52.362;9.206;2023-02-13T11:46:52;12.00;91.40
7970;DHT22;4030;52.362;9.206;2023-02-13T11:49:28;12.00;91.30
7970;DHT22;4030;52.362;9.206;2023-02-13T11:51:59;11.90;91.20
7970;DHT22;4030;52.362;9.206;2023-02-13T11:54:44;12.60;91.50
7970;DHT22;4030;52.362;9.206;2023-02-13T11:57:32;12.30;91.10
7970;DHT22;4030;52.362;9.206;2023-02-13T12:00:00;12.20;90.90
7970;DHT22;4030;52.362;9.206;2023-02-13T12:02:47;12.00;91.10
7970;DHT22;4030;52.362;9.206;2023-02-13T12:05:23;12.50;91.20
7970;DHT22;4030;52.362;9.206;2023-02-13T12:07:50;11.90;90.80
7970;DHT22;4030;52.362;9.206;2023-02-13T12:13:01;12.30;91.00
7970;DHT22;4030;52.362;9.206;2023-02-13T12:15:36;12.40;91.30
7970;DHT22;4030;52.362;9.206;2023-02-13T12:19:06;12.30;91.00
7970;DHT22;4030;52.362;9.206;2023-02-13T12:30:58;12.50;91.40
7970;DHT22;4030;52.362;9.206;2023-02-13T12:39:34;12.50;91.50
7970;DHT22;4030;52.362;9.206;2023-02-13T12:42:30;12.70;91.60
7970;DHT22;4030;52.362;9.206;2023-02-13T12:48:17;12.30;91.10
7970;DHT22;4030;52.362;9.206;2023-02-13T12:51:17;12.30;91.10
7970;DHT22;4030;52.362;9.206;2023-02-13T13:03:04;12.20;91.00
7970;DHT22;4030;52.362;9.206;2023-02-13T13:17:48;12.50;91.40
7970;DHT22;4030;52.362;9.206;2023-02-13T13:23:42;12.30;91.30
7970;DHT22;4030;52.362;9.206;2023-02-13T13:29:31;12.40;91.20
7970;DHT22;4030;52.362;9.206;2023-02-13T13:32:08;12.60;91.10
7970;DHT22;4030;52.362;9.206;2023-02-13T13:34:38;12.60;91.00
7970;DHT22;4030;52.362;9.206;2023-02-13T13:37:10;12.40;90.90
7970;DHT22;4030;52.362;9.206;2023-02-13T13:48:58;12.80;90.90
7970;DHT22;4030;52.362;9.206;2023-02-13T13:51:37;12.40;90.60
7970;DHT22;4030;52.362;9.206;2023-02-13T14:05:02;13.30;90.60
7970;DHT22;4030;52.362;9.206;2023-02-13T14:07:44;13.20;90.70
7970;DHT22;4030;52.362;9.206;2023-02-13T14:12:58;13.70;91.20
7970;DHT22;4030;52.362;9.206;2023-02-13T14:23:25;13.90;90.50
7970;DHT22;4030;52.362;9.206;2023-02-13T14:31:34;13.80;90.10
7970;DHT22;4030;52.362;9.206;2023-02-13T14:36:47;13.80;89.80
7970;DHT22;4030;52.362;9.206;2023-02-13T14:39:31;13.70;89.80
7970;DHT22;4030;52.362;9.206;2023-02-13T14:42:01;13.70;89.30
7970;DHT22;4030;52.362;9.206;2023-02-13T14:44:39;14.00;89.70
7970;DHT22;4030;52.362;9.206;2023-02-13T14:47:21;13.50;89.20
7970;DHT22;4030;52.362;9.206;2023-02-13T14:49:54;14.00;89.80
7970;DHT22;4030;52.362;9.206;2023-02-13T14:52:26;13.40;89.10
7970;DHT22;4030;52.362;9.206;2023-02-13T14:55:02;13.70;89.20
7970;DHT22;4030;52.362;9.206;2023-02-13T14:58:34;13.50;89.00
7970;DHT22;4030;52.362;9.206;2023-02-13T15:03:36;13.20;89.00
7970;DHT22;4030;52.362;9.206;2023-02-13T15:06:30;13.50;88.90
7970;DHT22;4030;52.362;9.206;2023-02-13T15:09:02;13.00;88.20
7970;DHT22;4030;52.362;9.206;2023-02-13T15:11:38;13.20;88.70
7970;DHT22;4030;52.362;9.206;2023-02-13T15:14:32;13.10;88.60
7970;DHT22;4030;52.362;9.206;2023-02-13T15:17:49;12.80;88.40
7970;DHT22;4030;52.362;9.206;2023-02-13T15:20:23;12.80;88.60
7970;DHT22;4030;52.362;9.206;2023-02-13T15:22:51;12.60;88.40
7970;DHT22;4030;52.362;9.206;2023-02-13T15:27:54;12.80;89.20
7970;DHT22;4030;52.362;9.206;2023-02-13T15:30:31;12.90;89.30
7970;DHT22;4030;52.362;9.206;2023-02-13T15:33:11;12.60;88.80
7970;DHT22;4030;52.362;9.206;2023-02-13T15:38:27;12.40;89.20
7970;DHT22;4030;52.362;9.206;2023-02-13T15:41:07;12.10;89.00
7970;DHT22;4030;52.362;9.206;2023-02-13T15:43:38;12.60;89.40
7970;DHT22;4030;52.362;9.206;2023-02-13T15:46:27;11.90;88.90
7970;DHT22;4030;52.362;9.206;2023-02-13T15:49:05;12.20;89.40
7970;DHT22;4030;52.362;9.206;2023-02-13T15:51:40;12.20;89.40
7970;DHT22;4030;52.362;9.206;2023-02-13T15:54:24;12.30;89.90
7970;DHT22;4030;52.362;9.206;2023-02-13T15:56:53;12.00;89.70
7970;DHT22;4030;52.362;9.206;2023-02-13T15:59:21;11.80;89.70
7970;DHT22;4030;52.362;9.206;2023-02-13T16:01:50;12.10;90.00
7970;DHT22;4030;52.362;9.206;2023-02-13T16:04:17;11.50;89.40
7970;DHT22;4030;52.362;9.206;2023-02-13T16:06:45;11.70;90.00
7970;DHT22;4030;52.362;9.206;2023-02-13T16:09:29;11.30;89.70
7970;DHT22;4030;52.362;9.206;2023-02-13T16:12:15;11.70;89.90
7970;DHT22;4030;52.362;9.206;2023-02-13T16:15:02;11.40;89.60
7970;DHT22;4030;52.362;9.206;2023-02-13T16:17:32;11.30;89.60
7970;DHT22;4030;52.362;9.206;2023-02-13T16:22:45;11.20;90.00
7970;DHT22;4030;52.362;9.206;2023-02-13T16:25:30;11.10;89.80
7970;DHT22;4030;52.362;9.206;2023-02-13T16:28:24;10.90;90.10
7970;DHT22;4030;52.362;9.206;2023-02-13T16:31:00;10.90;89.90
7970;DHT22;4030;52.362;9.206;2023-02-13T16:33:37;10.90;89.90
7970;DHT22;4030;52.362;9.206;2023-02-13T16:43:48;10.60;90.00
7970;DHT22;4030;52.362;9.206;2023-02-13T17:02:45;10.20;90.40
7970;DHT22;4030;52.362;9.206;2023-02-13T17:05:20;10.20;90.10
7970;DHT22;4030;52.362;9.206;2023-02-13T17:07:50;10.80;90.50
7970;DHT22;4030;52.362;9.206;2023-02-13T17:12:58;10.20;90.50
7970;DHT22;4030;52.362;9.206;2023-02-13T17:15:30;9.70;90.90
7970;DHT22;4030;52.362;9.206;2023-02-13T17:17:56;10.30;90.70
7970;DHT22;4030;52.362;9.206;2023-02-13T17:20:30;9.60;90.80
7970;DHT22;4030;52.362;9.206;2023-02-13T17:22:59;10.00;90.60
7970;DHT22;4030;52.362;9.206;2023-02-13T17:25:31;9.70;90.90
7970;DHT22;4030;52.362;9.206;2023-02-13T17:28:00;9.80;90.80
7970;DHT22;4030;52.362;9.206;2023-02-13T17:30:34;9.70;90.80
7970;DHT22;4030;52.362;9.206;2023-02-13T17:33:13;9.70;90.80
7970;DHT22;4030;52.362;9.206;2023-02-13T17:35:41;9.80;91.20
7970;DHT22;4030;52.362;9.206;2023-02-13T17:38:08;9.80;91.20
7970;DHT22;4030;52.362;9.206;2023-02-13T17:40:34;9.70;91.10
7970;DHT22;4030;52.362;9.206;2023-02-13T17:45:28;9.60;90.80
7970;DHT22;4030;52.362;9.206;2023-02-13T17:47:55;9.50;91.10
7970;DHT22;4030;52.362;9.206;2023-02-13T17:50:26;9.20;90.60
7970;DHT22;4030;52.362;9.206;2023-02-13T17:52:52;9.60;91.10
7970;DHT22;4030;52.362;9.206;2023-02-13T17:55:25;9.70;91.20
7970;DHT22;4030;52.362;9.206;2023-02-13T17:57:54;9.40;90.70
7970;DHT22;4030;52.362;9.206;2023-02-13T18:00:26;9.40;90.80
7970;DHT22;4030;52.362;9.206;2023-02-13T18:02:54;9.40;90.80
7970;DHT22;4030;52.362;9.206;2023-02-13T18:05:20;9.00;90.90
7970;DHT22;4030;52.362;9.206;2023-02-13T18:07:46;9.00;90.90
7970;DHT22;4030;52.362;9.206;2023-02-13T18:10:15;9.40;91.00
7970;DHT22;4030;52.362;9.206;2023-02-13T18:12:43;9.40;91.00
7970;DHT22;4030;52.362;9.206;2023-02-13T18:15:10;9.30;91.00
7970;DHT22;4030;52.362;9.206;2023-02-13T18:17:36;9.50;91.00
7970;DHT22;4030;52.362;9.206;2023-02-13T18:20:03;9.00;90.70
7970;DHT22;4030;52.362;9.206;2023-02-13T18:22:30;8.90;90.80
7970;DHT22;4030;52.362;9.206;2023-02-13T18:27:22;9.00;90.50
7970;DHT22;4030;52.362;9.206;2023-02-13T18:29:49;8.90;90.80
7970;DHT22;4030;52.362;9.206;2023-02-13T18:32:15;9.10;90.90
7970;DHT22;4030;52.362;9.206;2023-02-13T18:34:41;9.20;91.00
7970;DHT22;4030;52.362;9.206;2023-02-13T18:37:07;9.00;90.90
7970;DHT22;4030;52.362;9.206;2023-02-13T18:39:33;8.60;90.70
7970;DHT22;4030;52.362;9.206;2023-02-13T18:41:59;8.70;90.70
7970;DHT22;4030;52.362;9.206;2023-02-13T18:44:25;8.80;90.80
7970;DHT22;4030;52.362;9.206;2023-02-13T18:46:51;8.60;90.70
7970;DHT22;4030;52.362;9.206;2023-02-13T18:49:17;9.00;90.70
7970;DHT22;4030;52.362;9.206;2023-02-13T18:51:42;8.80;90.70
7970;DHT22;4030;52.362;9.206;2023-02-13T18:54:09;8.90;90.50
7970;DHT22;4030;52.362;9.206;2023-02-13T18:56:34;8.80;90.40
7970;DHT22;4030;52.362;9.206;2023-02-13T19:06:22;8.60;90.20
7970;DHT22;4030;52.362;9.206;2023-02-13T19:11:17;8.40;90.10
7970;DHT22;4030;52.362;9.206;2023-02-13T19:13:44;8.60;90.70
7970;DHT22;4030;52.362;9.206;2023-02-13T19:16:13;8.40;90.10
7970;DHT22;4030;52.362;9.206;2023-02-13T19:18:43;8.40;90.10
7970;DHT22;4030;52.362;9.206;2023-02-13T19:21:11;8.20;90.60
7970;DHT22;4030;52.362;9.206;2023-02-13T19:23:37;8.50;90.70
7970;DHT22;4030;52.362;9.206;2023-02-13T19:26:07;8.00;90.50
7970;DHT22;4030;52.362;9.206;2023-02-13T19:28:35;8.70;90.80
7970;DHT22;4030;52.362;9.206;2023-02-13T19:31:03;8.30;90.10
7970;DHT22;4030;52.362;9.206;2023-02-13T19:33:40;8.20;90.10
7970;DHT22;4030;52.362;9.206;2023-02-13T19:36:08;8.10;90.60
7970;DHT22;4030;52.362;9.206;2023-02-13T19:38:37;8.20;90.60
7970;DHT22;4030;52.362;9.206;2023-02-13T19:41:06;8.20;90.60
7970;DHT22;4030;52.362;9.206;2023-02-13T19:43:36;7.90;90.50
7970;DHT22;4030;52.362;9.206;2023-02-13T19:46:03;8.10;90.00
7970;DHT22;4030;52.362;9.206;2023-02-13T19:48:40;7.90;90.20
7970;DHT22;4030;52.362;9.206;2023-02-13T19:51:07;8.20;90.70
7970;DHT22;4030;52.362;9.206;2023-02-13T19:56:01;8.40;90.50
7970;DHT22;4030;52.362;9.206;2023-02-13T19:58:27;8.10;90.80
7970;DHT22;4030;52.362;9.206;2023-02-13T20:03:20;8.10;90.80
7970;DHT22;4030;52.362;9.206;2023-02-13T20:08:13;7.60;90.30
7970;DHT22;4030;52.362;9.206;2023-02-13T20:10:43;7.70;90.00
7970;DHT22;4030;52.362;9.206;2023-02-13T20:13:09;7.70;90.60
7970;DHT22;4030;52.362;9.206;2023-02-13T20:15:38;8.10;90.80
7970;DHT22;4030;52.362;9.206;2023-02-13T20:25:23;7.50;90.00
7970;DHT22;4030;52.362;9.206;2023-02-13T20:27:50;8.10;90.90
7970;DHT22;4030;52.362;9.206;2023-02-13T20:30:16;7.60;90.70
7970;DHT22;4030;52.362;9.206;2023-02-13T20:35:08;7.80;90.70
7970;DHT22;4030;52.362;9.206;2023-02-13T20:37:34;7.90;90.70
7970;DHT22;4030;52.362;9.206;2023-02-13T20:40:00;7.50;90.10
7970;DHT22;4030;52.362;9.206;2023-02-13T20:42:26;7.70;90.30
7970;DHT22;4030;52.362;9.206;2023-02-13T20:44:51;7.40;90.20
7970;DHT22;4030;52.362;9.206;2023-02-13T20:47:17;7.90;90.10
7970;DHT22;4030;52.362;9.206;2023-02-13T20:54:36;7.20;90.40
7970;DHT22;4030;52.362;9.206;2023-02-13T20:57:02;7.70;90.20
7970;DHT22;4030;52.362;9.206;2023-02-13T21:06:46;7.40;89.70
7970;DHT22;4030;52.362;9.206;2023-02-13T21:09:13;7.10;90.60
7970;DHT22;4030;52.362;9.206;2023-02-13T21:11:42;7.50;90.80
7970;DHT22;4030;52.362;9.206;2023-02-13T21:14:10;7.10;90.20
7970;DHT22;4030;52.362;9.206;2023-02-13T21:16:37;7.40;89.60
7970;DHT22;4030;52.362;9.206;2023-02-13T21:19:15;7.40;89.60
7970;DHT22;4030;52.362;9.206;2023-02-13T21:21:42;7.20;90.80
7970;DHT22;4030;52.362;9.206;2023-02-13T21:24:12;7.30;89.60
7970;DHT22;4030;52.362;9.206;2023-02-13T21:26:39;7.00;90.80
7970;DHT22;4030;52.362;9.206;2023-02-13T21:29:06;7.50;91.10
7970;DHT22;4030;52.362;9.206;2023-02-13T21:31:38;7.30;91.10
7970;DHT22;4030;52.362;9.206;2023-02-13T21:34:10;7.50;91.20
7970;DHT22;4030;52.362;9.206;2023-02-13T21:36:37;7.20;91.10
7970;DHT22;4030;52.362;9.206;2023-02-13T21:39:05;7.20;91.10
7970;DHT22;4030;52.362;9.206;2023-02-13T21:41:31;7.00;91.10
7970;DHT22;4030;52.362;9.206;2023-02-13T21:43:57;7.30;91.20
7970;DHT22;4030;52.362;9.206;2023-02-13T21:46:26;7.00;90.40
7970;DHT22;4030;52.362;9.206;2023-02-13T21:48:54;6.80;91.00
7970;DHT22;4030;52.362;9.206;2023-02-13T21:51:22;7.20;89.60
7970;DHT22;4030;52.362;9.206;2023-02-13T21:53:49;7.40;91.40
7970;DHT22;4030;52.362;9.206;2023-02-13T21:56:21;7.10;89.50
7970;DHT22;4030;52.362;9.206;2023-02-13T21:58:49;6.90;91.20
7970;DHT22;4030;52.362;9.206;2023-02-13T22:01:23;7.30;91.40
7970;DHT22;4030;52.362;9.206;2023-02-13T22:03:54;7.20;91.40
7970;DHT22;4030;52.362;9.206;2023-02-13T22:06:20;7.10;91.30
7970;DHT22;4030;52.362;9.206;2023-02-13T22:08:46;7.00;89.50
7970;DHT22;4030;52.362;9.206;2023-02-13T22:11:12;6.70;91.00
7970;DHT22;4030;52.362;9.206;2023-02-13T22:13:38;6.80;91.10
7970;DHT22;4030;52.362;9.206;2023-02-13T22:16:09;7.30;90.30
7970;DHT22;4030;52.362;9.206;2023-02-13T22:18:38;6.90;90.60
7970;DHT22;4030;52.362;9.206;2023-02-13T22:21:07;7.00;91.30
7970;DHT22;4030;52.362;9.206;2023-02-13T22:26:07;7.00;91.30
7970;DHT22;4030;52.362;9.206;2023-02-13T22:31:08;6.80;89.40
7970;DHT22;4030;52.362;9.206;2023-02-13T22:33:35;6.60;90.40
7970;DHT22;4030;52.362;9.206;2023-02-13T22:36:01;6.50;91.10
7970;DHT22;4030;52.362;9.206;2023-02-13T22:38:26;6.90;90.20
7970;DHT22;4030;52.362;9.206;2023-02-13T22:40:53;6.60;91.20
7970;DHT22;4030;52.362;9.206;2023-02-13T22:48:11;6.80;91.20
7970;DHT22;4030;52.362;9.206;2023-02-13T22:55:29;6.70;90.00
7970;DHT22;4030;52.362;9.206;2023-02-13T23:00:22;7.10;91.60
7970;DHT22;4030;52.362;9.206;2023-02-13T23:02:49;7.00;91.50
7970;DHT22;4030;52.362;9.206;2023-02-13T23:05:15;6.40;91.20
7970;DHT22;4030;52.362;9.206;2023-02-13T23:07:42;6.40;91.20
7970;DHT22;4030;52.362;9.206;2023-02-13T23:10:08;6.40;91.10
7970;DHT22;4030;52.362;9.206;2023-02-13T23:12:34;6.50;91.20
7970;DHT22;4030;52.362;9.206;2023-02-13T23:15:12;6.80;91.30
7970;DHT22;4030;52.362;9.206;2023-02-13T23:17:39;7.00;91.40
7970;DHT22;4030;52.362;9.206;2023-02-13T23:20:24;7.10;91.50
7970;DHT22;4030;52.362;9.206;2023-02-13T23:22:50;6.30;91.10
7970;DHT22;4030;52.362;9.206;2023-02-13T23:25:17;6.50;91.20
7970;DHT22;4030;52.362;9.206;2023-02-13T23:27:43;6.40;91.30